GLD166 SNBI-SSRS
Flight info
| Callsign | GLD166 |
|---|---|
| Flight time | 1h 50m |
| Altitude | 3500 |
| Route | 0326S04404W 0301S04325W |
| Aircraft | C182/M-SDFGIRY/S |
Departure
| Time | 2026-04-23 17:27 |
|---|---|
| Airport | Bacabal Airport (SNBI) |
Arrival
| Time | 2026-04-23 19:17 |
|---|---|
| Airport | Barreirinhas National Airport (SSRS) |
| Time | Latitude | Longitude | Altitude | Speed | Heading |
|---|---|---|---|---|---|
| 2026-04-23 17:24 | -4.23029 | -44.82181 | 73 ft | 0 kts | 173° |
| 2026-04-23 17:25 | -4.23015 | -44.82197 | 69 ft | 9 kts | 333° |
| 2026-04-23 17:25 | -4.22903 | -44.82227 | 74 ft | 22 kts | 354° |
| 2026-04-23 17:26 | -4.22757 | -44.81615 | 71 ft | 93 kts | 83° |
| 2026-04-23 17:26 | -4.22231 | -44.80308 | 453 ft | 119 kts | 32° |
| 2026-04-23 17:27 | -4.20507 | -44.80651 | 723 ft | 142 kts | 5° |
| 2026-04-23 17:27 | -4.19656 | -44.80136 | 877 ft | 146 kts | 41° |
| 2026-04-23 17:27 | -4.18884 | -44.79467 | 1061 ft | 147 kts | 39° |
| 2026-04-23 17:27 | -4.18101 | -44.78799 | 1246 ft | 148 kts | 39° |
| 2026-04-23 17:28 | -4.17312 | -44.78128 | 1420 ft | 149 kts | 40° |
| 2026-04-23 17:28 | -4.16536 | -44.77467 | 1608 ft | 148 kts | 40° |
| 2026-04-23 17:28 | -4.15746 | -44.76793 | 1783 ft | 151 kts | 39° |
| 2026-04-23 17:28 | -4.14940 | -44.76105 | 1946 ft | 153 kts | 40° |
| 2026-04-23 17:29 | -4.14124 | -44.75412 | 2139 ft | 155 kts | 39° |
| 2026-04-23 17:29 | -4.13300 | -44.74715 | 2300 ft | 152 kts | 39° |
| 2026-04-23 17:29 | -4.11699 | -44.73354 | 2645 ft | 150 kts | 40° |
| 2026-04-23 17:30 | -4.10910 | -44.72683 | 2826 ft | 149 kts | 39° |
| 2026-04-23 17:30 | -4.09313 | -44.71324 | 3167 ft | 151 kts | 39° |
| 2026-04-23 17:30 | -4.08519 | -44.70650 | 3332 ft | 149 kts | 39° |
| 2026-04-23 17:31 | -4.07723 | -44.69974 | 3412 ft | 155 kts | 39° |
| 2026-04-23 17:31 | -4.06885 | -44.69262 | 3412 ft | 160 kts | 40° |
| 2026-04-23 17:31 | -4.06033 | -44.68539 | 3414 ft | 161 kts | 39° |
| 2026-04-23 17:31 | -4.05178 | -44.67815 | 3416 ft | 161 kts | 39° |
| 2026-04-23 17:32 | -4.04320 | -44.67088 | 3413 ft | 162 kts | 40° |
| 2026-04-23 17:32 | -4.03475 | -44.66374 | 3420 ft | 162 kts | 39° |
| 2026-04-23 17:32 | -4.02611 | -44.65641 | 3419 ft | 162 kts | 39° |
| 2026-04-23 17:32 | -4.01740 | -44.64904 | 3418 ft | 164 kts | 39° |
| 2026-04-23 17:33 | -4.00872 | -44.64172 | 3420 ft | 162 kts | 39° |
| 2026-04-23 17:33 | -4.00003 | -44.63437 | 3423 ft | 164 kts | 40° |
| 2026-04-23 17:33 | -3.99136 | -44.62705 | 3426 ft | 163 kts | 39° |
| 2026-04-23 17:33 | -3.98260 | -44.61965 | 3425 ft | 166 kts | 39° |
| 2026-04-23 17:34 | -3.97376 | -44.61219 | 3426 ft | 166 kts | 39° |
| 2026-04-23 17:34 | -3.96502 | -44.60480 | 3427 ft | 167 kts | 39° |
| 2026-04-23 17:34 | -3.94747 | -44.59000 | 3420 ft | 163 kts | 39° |
| 2026-04-23 17:35 | -3.93883 | -44.58271 | 3426 ft | 162 kts | 39° |
| 2026-04-23 17:35 | -3.92141 | -44.56804 | 3419 ft | 163 kts | 39° |
| 2026-04-23 17:35 | -3.91276 | -44.56074 | 3419 ft | 162 kts | 39° |
| 2026-04-23 17:36 | -3.90413 | -44.55347 | 3418 ft | 162 kts | 39° |
| 2026-04-23 17:36 | -3.89554 | -44.54622 | 3423 ft | 161 kts | 39° |
| 2026-04-23 17:36 | -3.88693 | -44.53897 | 3417 ft | 161 kts | 39° |
| 2026-04-23 17:36 | -3.87833 | -44.53174 | 3417 ft | 161 kts | 39° |
| 2026-04-23 17:37 | -3.86971 | -44.52450 | 3419 ft | 163 kts | 39° |
| 2026-04-23 17:37 | -3.86104 | -44.51722 | 3416 ft | 162 kts | 39° |
| 2026-04-23 17:37 | -3.84386 | -44.50277 | 3423 ft | 163 kts | 39° |
| 2026-04-23 17:38 | -3.83514 | -44.49541 | 3425 ft | 163 kts | 39° |
| 2026-04-23 17:38 | -3.82641 | -44.48808 | 3419 ft | 163 kts | 39° |
| 2026-04-23 17:38 | -3.81770 | -44.48078 | 3431 ft | 164 kts | 39° |
| 2026-04-23 17:38 | -3.80891 | -44.47343 | 3420 ft | 165 kts | 39° |
| 2026-04-23 17:39 | -3.80019 | -44.46609 | 3420 ft | 163 kts | 39° |
| 2026-04-23 17:39 | -3.79146 | -44.45877 | 3420 ft | 163 kts | 39° |
| 2026-04-23 17:39 | -3.78279 | -44.45146 | 3419 ft | 163 kts | 39° |
| 2026-04-23 17:39 | -3.77411 | -44.44423 | 3423 ft | 162 kts | 39° |
| 2026-04-23 17:40 | -3.76544 | -44.43699 | 3419 ft | 162 kts | 39° |
| 2026-04-23 17:40 | -3.75681 | -44.42976 | 3418 ft | 162 kts | 39° |
| 2026-04-23 17:40 | -3.74814 | -44.42251 | 3422 ft | 163 kts | 39° |
| 2026-04-23 17:40 | -3.73936 | -44.41518 | 3425 ft | 165 kts | 39° |
| 2026-04-23 17:41 | -3.73052 | -44.40781 | 3428 ft | 165 kts | 39° |
| 2026-04-23 17:41 | -3.71300 | -44.39313 | 3431 ft | 163 kts | 39° |
| 2026-04-23 17:41 | -3.70427 | -44.38584 | 3428 ft | 163 kts | 39° |
| 2026-04-23 17:42 | -3.68692 | -44.37136 | 3428 ft | 162 kts | 39° |
| 2026-04-23 17:42 | -3.67811 | -44.36400 | 3427 ft | 166 kts | 39° |
| 2026-04-23 17:42 | -3.66928 | -44.35661 | 3428 ft | 165 kts | 39° |
| 2026-04-23 17:43 | -3.66045 | -44.34923 | 3428 ft | 165 kts | 39° |
| 2026-04-23 17:43 | -3.65163 | -44.34187 | 3428 ft | 166 kts | 39° |
| 2026-04-23 17:43 | -3.64282 | -44.33453 | 3421 ft | 164 kts | 39° |
| 2026-04-23 17:43 | -3.63410 | -44.32728 | 3419 ft | 162 kts | 39° |
| 2026-04-23 17:44 | -3.62544 | -44.32008 | 3419 ft | 162 kts | 39° |
| 2026-04-23 17:44 | -3.61677 | -44.31285 | 3419 ft | 163 kts | 39° |
| 2026-04-23 17:44 | -3.59939 | -44.29837 | 3423 ft | 162 kts | 39° |
| 2026-04-23 17:45 | -3.59073 | -44.29115 | 3419 ft | 162 kts | 39° |
| 2026-04-23 17:45 | -3.57354 | -44.27686 | 3418 ft | 161 kts | 39° |
| 2026-04-23 17:45 | -3.56489 | -44.26968 | 3423 ft | 161 kts | 39° |
| 2026-04-23 17:46 | -3.54745 | -44.25518 | 3421 ft | 163 kts | 39° |
| 2026-04-23 17:46 | -3.53872 | -44.24793 | 3421 ft | 163 kts | 39° |
| 2026-04-23 17:46 | -3.52998 | -44.24068 | 3423 ft | 163 kts | 39° |
| 2026-04-23 17:47 | -3.52124 | -44.23344 | 3426 ft | 163 kts | 39° |
| 2026-04-23 17:47 | -3.51251 | -44.22620 | 3420 ft | 162 kts | 39° |
| 2026-04-23 17:47 | -3.49488 | -44.21159 | 3421 ft | 165 kts | 39° |
| 2026-04-23 17:48 | -3.48610 | -44.20431 | 3420 ft | 163 kts | 39° |
| 2026-04-23 17:48 | -3.47733 | -44.19705 | 3430 ft | 165 kts | 39° |
| 2026-04-23 17:48 | -3.46849 | -44.18973 | 3420 ft | 164 kts | 39° |
| 2026-04-23 17:48 | -3.45973 | -44.18249 | 3429 ft | 163 kts | 39° |
| 2026-04-23 17:49 | -3.45096 | -44.17523 | 3426 ft | 167 kts | 39° |
| 2026-04-23 17:49 | -3.44209 | -44.16790 | 3421 ft | 164 kts | 39° |
| 2026-04-23 17:49 | -3.43333 | -44.16066 | 3421 ft | 163 kts | 39° |
| 2026-04-23 17:49 | -3.42456 | -44.15340 | 3420 ft | 163 kts | 39° |
| 2026-04-23 17:50 | -3.41584 | -44.14619 | 3420 ft | 162 kts | 39° |
| 2026-04-23 17:50 | -3.39849 | -44.13186 | 3419 ft | 162 kts | 39° |
| 2026-04-23 17:50 | -3.38982 | -44.12470 | 3419 ft | 162 kts | 39° |
| 2026-04-23 17:51 | -3.38114 | -44.11754 | 3418 ft | 162 kts | 39° |
| 2026-04-23 17:51 | -3.37256 | -44.11046 | 3419 ft | 162 kts | 39° |
| 2026-04-23 17:51 | -3.35522 | -44.09615 | 3419 ft | 161 kts | 39° |
| 2026-04-23 17:52 | -3.34706 | -44.08854 | 3397 ft | 162 kts | 55° |
| 2026-04-23 17:52 | -3.33729 | -44.06828 | 3381 ft | 162 kts | 60° |
| 2026-04-23 17:52 | -3.33186 | -44.05839 | 3382 ft | 162 kts | 61° |
| 2026-04-23 17:53 | -3.32101 | -44.03864 | 3383 ft | 162 kts | 61° |
| 2026-04-23 17:53 | -3.31558 | -44.02876 | 3383 ft | 162 kts | 61° |
| 2026-04-23 17:53 | -3.31015 | -44.01888 | 3383 ft | 163 kts | 60° |
| 2026-04-23 17:54 | -3.30468 | -44.00894 | 3384 ft | 164 kts | 61° |
| 2026-04-23 17:54 | -3.29923 | -43.99898 | 3384 ft | 163 kts | 61° |
| 2026-04-23 17:54 | -3.28835 | -43.97921 | 3384 ft | 162 kts | 60° |
| 2026-04-23 17:55 | -3.27742 | -43.95936 | 3384 ft | 165 kts | 60° |
| 2026-04-23 17:55 | -3.27191 | -43.94934 | 3385 ft | 164 kts | 60° |
| 2026-04-23 17:55 | -3.26640 | -43.93940 | 3392 ft | 163 kts | 61° |
| 2026-04-23 17:56 | -3.26089 | -43.92943 | 3386 ft | 166 kts | 60° |
| 2026-04-23 17:56 | -3.24984 | -43.90936 | 3385 ft | 163 kts | 60° |
| 2026-04-23 17:56 | -3.24438 | -43.89946 | 3385 ft | 162 kts | 60° |
| 2026-04-23 17:57 | -3.23892 | -43.88958 | 3384 ft | 162 kts | 60° |
| 2026-04-23 17:57 | -3.23347 | -43.87972 | 3384 ft | 162 kts | 60° |
| 2026-04-23 17:57 | -3.22256 | -43.85998 | 3383 ft | 162 kts | 60° |
| 2026-04-23 17:58 | -3.21710 | -43.85011 | 3383 ft | 162 kts | 60° |
| 2026-04-23 17:58 | -3.21165 | -43.84026 | 3383 ft | 162 kts | 60° |
| 2026-04-23 17:58 | -3.20620 | -43.83040 | 3383 ft | 162 kts | 60° |
| 2026-04-23 17:58 | -3.20072 | -43.82052 | 3395 ft | 165 kts | 60° |
| 2026-04-23 17:59 | -3.19510 | -43.81038 | 3390 ft | 167 kts | 60° |
| 2026-04-23 17:59 | -3.18952 | -43.80031 | 3398 ft | 165 kts | 61° |
| 2026-04-23 17:59 | -3.18396 | -43.79029 | 3397 ft | 165 kts | 60° |
| 2026-04-23 17:59 | -3.17831 | -43.78010 | 3387 ft | 168 kts | 60° |
| 2026-04-23 18:00 | -3.17279 | -43.77014 | 3387 ft | 164 kts | 60° |
| 2026-04-23 18:00 | -3.16723 | -43.76012 | 3387 ft | 165 kts | 60° |
| 2026-04-23 18:00 | -3.16170 | -43.75007 | 3388 ft | 166 kts | 60° |
| 2026-04-23 18:00 | -3.15608 | -43.74002 | 3396 ft | 167 kts | 60° |
| 2026-04-23 18:01 | -3.15036 | -43.72981 | 3387 ft | 168 kts | 60° |
| 2026-04-23 18:01 | -3.14470 | -43.71968 | 3397 ft | 168 kts | 60° |
| 2026-04-23 18:01 | -3.13907 | -43.70955 | 3387 ft | 165 kts | 60° |
| 2026-04-23 18:01 | -3.13352 | -43.69956 | 3386 ft | 163 kts | 60° |
| 2026-04-23 18:02 | -3.12985 | -43.69297 | 3386 ft | 163 kts | 60° |
| 2026-04-23 18:02 | -3.12260 | -43.67991 | 3389 ft | 162 kts | 61° |
| 2026-04-23 18:02 | -3.11705 | -43.66996 | 3384 ft | 165 kts | 60° |
| 2026-04-23 18:02 | -3.11145 | -43.65994 | 3393 ft | 165 kts | 60° |
| 2026-04-23 18:03 | -3.10581 | -43.64985 | 3387 ft | 166 kts | 60° |
| 2026-04-23 18:03 | -3.10023 | -43.63985 | 3386 ft | 163 kts | 60° |
| 2026-04-23 18:03 | -3.09465 | -43.62982 | 3385 ft | 165 kts | 60° |
| 2026-04-23 18:03 | -3.08905 | -43.61982 | 3396 ft | 165 kts | 60° |
| 2026-04-23 18:04 | -3.08349 | -43.60987 | 3387 ft | 164 kts | 60° |
| 2026-04-23 18:04 | -3.07786 | -43.59981 | 3395 ft | 167 kts | 60° |
| 2026-04-23 18:04 | -3.07220 | -43.58969 | 3394 ft | 167 kts | 60° |
| 2026-04-23 18:04 | -3.06652 | -43.57960 | 3390 ft | 165 kts | 60° |
| 2026-04-23 18:05 | -3.06092 | -43.56956 | 3395 ft | 166 kts | 60° |
| 2026-04-23 18:05 | -3.05535 | -43.55948 | 3386 ft | 165 kts | 61° |
| 2026-04-23 18:05 | -3.04972 | -43.54956 | 3389 ft | 163 kts | 60° |
| 2026-04-23 18:05 | -3.04416 | -43.53964 | 3397 ft | 165 kts | 60° |
| 2026-04-23 18:06 | -3.03853 | -43.52959 | 3387 ft | 165 kts | 60° |
| 2026-04-23 18:06 | -3.03299 | -43.51970 | 3393 ft | 164 kts | 60° |
| 2026-04-23 18:06 | -3.02734 | -43.50963 | 3386 ft | 165 kts | 60° |
| 2026-04-23 18:06 | -3.02171 | -43.49962 | 3386 ft | 165 kts | 60° |
| 2026-04-23 18:07 | -3.01612 | -43.48962 | 3396 ft | 166 kts | 60° |
| 2026-04-23 18:07 | -3.01049 | -43.47959 | 3392 ft | 164 kts | 60° |
| 2026-04-23 18:07 | -3.00489 | -43.46961 | 3387 ft | 164 kts | 60° |
| 2026-04-23 18:07 | -2.99925 | -43.45962 | 3396 ft | 166 kts | 60° |
| 2026-04-23 18:08 | -2.99553 | -43.45296 | 3388 ft | 165 kts | 60° |
| 2026-04-23 18:08 | -2.98996 | -43.44300 | 3385 ft | 164 kts | 60° |
| 2026-04-23 18:08 | -2.98438 | -43.43312 | 3391 ft | 163 kts | 60° |
| 2026-04-23 18:08 | -2.97875 | -43.42313 | 3391 ft | 165 kts | 60° |
| 2026-04-23 18:09 | -2.97311 | -43.41309 | 3394 ft | 166 kts | 60° |
| 2026-04-23 18:09 | -2.96739 | -43.40295 | 3397 ft | 168 kts | 60° |
| 2026-04-23 18:09 | -2.96177 | -43.39289 | 3387 ft | 166 kts | 60° |
| 2026-04-23 18:09 | -2.95615 | -43.38295 | 3386 ft | 163 kts | 60° |
| 2026-04-23 18:10 | -2.95057 | -43.37307 | 3386 ft | 163 kts | 60° |
| 2026-04-23 18:10 | -2.94502 | -43.36322 | 3385 ft | 162 kts | 60° |
| 2026-04-23 18:10 | -2.93947 | -43.35339 | 3389 ft | 162 kts | 60° |
| 2026-04-23 18:10 | -2.93386 | -43.34340 | 3396 ft | 167 kts | 60° |
| 2026-04-23 18:11 | -2.92818 | -43.33333 | 3392 ft | 165 kts | 60° |
| 2026-04-23 18:11 | -2.92254 | -43.32338 | 3387 ft | 163 kts | 60° |
| 2026-04-23 18:11 | -2.91697 | -43.31353 | 3385 ft | 162 kts | 60° |
| 2026-04-23 18:11 | -2.91140 | -43.30369 | 3384 ft | 162 kts | 60° |
| 2026-04-23 18:12 | -2.90584 | -43.29381 | 3384 ft | 164 kts | 60° |
| 2026-04-23 18:12 | -2.90018 | -43.28392 | 3395 ft | 164 kts | 59° |
| 2026-04-23 18:12 | -2.89456 | -43.27399 | 3385 ft | 163 kts | 60° |
| 2026-04-23 18:12 | -2.88908 | -43.26426 | 3385 ft | 162 kts | 60° |
| 2026-04-23 18:13 | -2.88353 | -43.25444 | 3384 ft | 162 kts | 60° |
| 2026-04-23 18:13 | -2.87797 | -43.24457 | 3389 ft | 163 kts | 61° |
| 2026-04-23 18:13 | -2.87237 | -43.23470 | 3384 ft | 163 kts | 60° |
| 2026-04-23 18:13 | -2.86679 | -43.22487 | 3384 ft | 162 kts | 60° |
| 2026-04-23 18:14 | -2.86121 | -43.21507 | 3384 ft | 162 kts | 60° |
| 2026-04-23 18:14 | -2.85566 | -43.20525 | 3384 ft | 162 kts | 60° |
| 2026-04-23 18:14 | -2.85007 | -43.19543 | 3384 ft | 162 kts | 60° |
| 2026-04-23 18:14 | -2.84449 | -43.18565 | 3384 ft | 162 kts | 60° |
| 2026-04-23 18:15 | -2.83892 | -43.17585 | 3384 ft | 162 kts | 60° |
| 2026-04-23 18:15 | -2.83335 | -43.16603 | 3384 ft | 162 kts | 60° |
| 2026-04-23 18:15 | -2.82777 | -43.15621 | 3384 ft | 162 kts | 60° |
| 2026-04-23 18:15 | -2.82220 | -43.14643 | 3384 ft | 162 kts | 60° |
| 2026-04-23 18:16 | -2.81664 | -43.13665 | 3385 ft | 162 kts | 60° |
| 2026-04-23 18:16 | -2.81106 | -43.12686 | 3384 ft | 162 kts | 60° |
| 2026-04-23 18:16 | -2.80549 | -43.11708 | 3384 ft | 162 kts | 60° |
| 2026-04-23 18:17 | -2.79441 | -43.09764 | 3385 ft | 162 kts | 60° |
| 2026-04-23 18:17 | -2.78880 | -43.08779 | 3385 ft | 163 kts | 60° |
| 2026-04-23 18:17 | -2.78317 | -43.07792 | 3387 ft | 163 kts | 60° |
| 2026-04-23 18:17 | -2.77749 | -43.06795 | 3387 ft | 166 kts | 60° |
| 2026-04-23 18:18 | -2.77189 | -43.05797 | 3386 ft | 163 kts | 62° |
| 2026-04-23 18:18 | -2.76733 | -43.04757 | 3382 ft | 162 kts | 67° |
| 2026-04-23 18:18 | -2.76298 | -43.03716 | 3385 ft | 162 kts | 67° |
| 2026-04-23 18:18 | -2.75861 | -43.02675 | 3384 ft | 163 kts | 67° |
| 2026-04-23 18:19 | -2.75419 | -43.01628 | 3382 ft | 163 kts | 67° |
| 2026-04-23 18:19 | -2.74981 | -43.00588 | 3381 ft | 163 kts | 67° |
| 2026-04-23 18:19 | -2.74543 | -42.99542 | 3382 ft | 163 kts | 67° |
| 2026-04-23 18:19 | -2.74102 | -42.98500 | 3382 ft | 162 kts | 66° |
| 2026-04-23 18:20 | -2.73663 | -42.97459 | 3385 ft | 162 kts | 66° |
| 2026-04-23 18:20 | -2.73225 | -42.96422 | 3385 ft | 162 kts | 67° |
| 2026-04-23 18:20 | -2.72789 | -42.95380 | 3382 ft | 162 kts | 67° |
| 2026-04-23 18:20 | -2.72353 | -42.94351 | 3382 ft | 162 kts | 66° |
| 2026-04-23 18:21 | -2.71912 | -42.93310 | 3382 ft | 162 kts | 67° |
| 2026-04-23 18:21 | -2.71472 | -42.92269 | 3384 ft | 162 kts | 66° |
| 2026-04-23 18:21 | -2.71032 | -42.91226 | 3383 ft | 164 kts | 67° |
| 2026-04-23 18:21 | -2.70590 | -42.90180 | 3383 ft | 163 kts | 67° |
| 2026-04-23 18:22 | -2.70148 | -42.89136 | 3385 ft | 163 kts | 66° |
| 2026-04-23 18:22 | -2.69705 | -42.88085 | 3384 ft | 164 kts | 67° |
| 2026-04-23 18:22 | -2.69261 | -42.87035 | 3390 ft | 163 kts | 66° |
| 2026-04-23 18:22 | -2.68815 | -42.85988 | 3390 ft | 164 kts | 67° |
| 2026-04-23 18:23 | -2.68517 | -42.85288 | 3388 ft | 165 kts | 66° |
| 2026-04-23 18:23 | -2.67476 | -42.82830 | 3384 ft | 164 kts | 66° |
| 2026-04-23 18:24 | -2.68210 | -42.80952 | 3273 ft | 165 kts | 159° |
| 2026-04-23 18:24 | -2.69323 | -42.80713 | 3272 ft | 163 kts | 170° |
| 2026-04-23 18:24 | -2.70430 | -42.80498 | 3272 ft | 161 kts | 169° |
| 2026-04-23 18:25 | -2.72627 | -42.80069 | 3275 ft | 161 kts | 169° |
| 2026-04-23 18:25 | -2.73726 | -42.79854 | 3278 ft | 161 kts | 169° |
| 2026-04-23 18:25 | -2.74826 | -42.79641 | 3282 ft | 162 kts | 170° |
| 2026-04-23 18:25 | -2.75936 | -42.79424 | 3285 ft | 164 kts | 169° |
| 2026-04-23 18:26 | -2.77042 | -42.79211 | 3279 ft | 163 kts | 170° |
| 2026-04-23 18:26 | -2.78157 | -42.78993 | 3279 ft | 163 kts | 169° |
| 2026-04-23 18:26 | -2.79266 | -42.78774 | 3279 ft | 162 kts | 169° |
| 2026-04-23 18:26 | -2.80373 | -42.78556 | 3279 ft | 162 kts | 169° |
| 2026-04-23 18:27 | -2.81477 | -42.78340 | 3279 ft | 162 kts | 169° |
| 2026-04-23 18:27 | -2.82578 | -42.78125 | 3278 ft | 161 kts | 169° |
| 2026-04-23 18:27 | -2.83678 | -42.77909 | 3276 ft | 161 kts | 169° |
| 2026-04-23 18:27 | -2.84776 | -42.77695 | 3283 ft | 161 kts | 169° |
| 2026-04-23 18:28 | -2.85878 | -42.77478 | 3286 ft | 162 kts | 169° |
| 2026-04-23 18:28 | -2.86968 | -42.77263 | 3283 ft | 161 kts | 169° |
| 2026-04-23 18:28 | -2.88068 | -42.77047 | 3282 ft | 161 kts | 169° |
| 2026-04-23 18:28 | -2.89173 | -42.76830 | 3282 ft | 162 kts | 169° |
| 2026-04-23 18:29 | -2.90281 | -42.76612 | 3282 ft | 163 kts | 169° |
| 2026-04-23 18:29 | -2.91397 | -42.76392 | 3285 ft | 164 kts | 169° |
| 2026-04-23 18:29 | -2.92511 | -42.76172 | 3278 ft | 162 kts | 169° |
| 2026-04-23 18:29 | -2.93615 | -42.75952 | 3275 ft | 161 kts | 169° |
| 2026-04-23 18:30 | -2.94712 | -42.75735 | 3277 ft | 161 kts | 169° |
| 2026-04-23 18:30 | -2.95818 | -42.75516 | 3278 ft | 162 kts | 169° |
| 2026-04-23 18:30 | -2.96926 | -42.75297 | 3277 ft | 162 kts | 169° |
| 2026-04-23 18:30 | -2.98027 | -42.75077 | 3283 ft | 162 kts | 169° |
| 2026-04-23 18:31 | -2.99122 | -42.74862 | 3276 ft | 162 kts | 169° |
| 2026-04-23 18:31 | -3.00223 | -42.74641 | 3283 ft | 162 kts | 169° |
| 2026-04-23 18:31 | -3.01331 | -42.74420 | 3283 ft | 162 kts | 169° |
| 2026-04-23 18:31 | -3.02440 | -42.74199 | 3276 ft | 162 kts | 169° |
| 2026-04-23 18:32 | -3.03551 | -42.73978 | 3284 ft | 163 kts | 169° |
| 2026-04-23 18:32 | -3.04668 | -42.73755 | 3284 ft | 164 kts | 169° |
| 2026-04-23 18:32 | -3.05785 | -42.73534 | 3285 ft | 162 kts | 169° |
| 2026-04-23 18:32 | -3.06898 | -42.73311 | 3284 ft | 164 kts | 169° |
| 2026-04-23 18:33 | -3.08014 | -42.73087 | 3278 ft | 162 kts | 169° |
| 2026-04-23 18:33 | -3.09106 | -42.72868 | 3283 ft | 163 kts | 169° |
| 2026-04-23 18:33 | -3.10220 | -42.72644 | 3283 ft | 163 kts | 169° |
| 2026-04-23 18:33 | -3.11335 | -42.72421 | 3285 ft | 164 kts | 169° |
| 2026-04-23 18:34 | -3.12447 | -42.72198 | 3285 ft | 163 kts | 169° |
| 2026-04-23 18:34 | -3.13564 | -42.71973 | 3285 ft | 164 kts | 169° |
| 2026-04-23 18:34 | -3.14684 | -42.71748 | 3276 ft | 164 kts | 169° |
| 2026-04-23 18:34 | -3.15795 | -42.71524 | 3282 ft | 162 kts | 169° |
| 2026-04-23 18:35 | -3.16904 | -42.71301 | 3282 ft | 162 kts | 169° |
| 2026-04-23 18:35 | -3.18012 | -42.71079 | 3281 ft | 162 kts | 169° |
| 2026-04-23 18:35 | -3.19120 | -42.70855 | 3278 ft | 162 kts | 169° |
| 2026-04-23 18:35 | -3.20212 | -42.70633 | 3280 ft | 162 kts | 169° |
| 2026-04-23 18:36 | -3.21314 | -42.70410 | 3279 ft | 161 kts | 169° |
| 2026-04-23 18:36 | -3.22400 | -42.70532 | 3229 ft | 161 kts | 210° |
| 2026-04-23 18:36 | -3.22995 | -42.71439 | 3172 ft | 161 kts | 261° |
| 2026-04-23 18:36 | -3.22661 | -42.72476 | 3123 ft | 163 kts | 311° |
| 2026-04-23 18:37 | -3.21739 | -42.73118 | 3110 ft | 160 kts | 328° |
| 2026-04-23 18:37 | -3.20800 | -42.73706 | 3118 ft | 159 kts | 327° |
| 2026-04-23 18:37 | -3.19867 | -42.74298 | 3119 ft | 160 kts | 327° |
| 2026-04-23 18:37 | -3.18923 | -42.74892 | 3120 ft | 160 kts | 327° |
| 2026-04-23 18:38 | -3.17979 | -42.75485 | 3120 ft | 160 kts | 327° |
| 2026-04-23 18:38 | -3.17036 | -42.76081 | 3120 ft | 160 kts | 327° |
| 2026-04-23 18:38 | -3.16096 | -42.76674 | 3122 ft | 160 kts | 327° |
| 2026-04-23 18:38 | -3.15152 | -42.77269 | 3123 ft | 160 kts | 327° |
| 2026-04-23 18:39 | -3.14215 | -42.77859 | 3119 ft | 161 kts | 327° |
| 2026-04-23 18:39 | -3.13271 | -42.78455 | 3125 ft | 160 kts | 327° |
| 2026-04-23 18:39 | -3.12321 | -42.79056 | 3125 ft | 162 kts | 327° |
| 2026-04-23 18:39 | -3.11370 | -42.79655 | 3123 ft | 162 kts | 327° |
| 2026-04-23 18:40 | -3.10415 | -42.80258 | 3123 ft | 161 kts | 327° |
| 2026-04-23 18:40 | -3.09464 | -42.80858 | 3122 ft | 162 kts | 327° |
| 2026-04-23 18:40 | -3.08517 | -42.81457 | 3124 ft | 160 kts | 327° |
| 2026-04-23 18:40 | -3.07573 | -42.82054 | 3122 ft | 160 kts | 327° |
| 2026-04-23 18:41 | -3.06628 | -42.82652 | 3123 ft | 161 kts | 327° |
| 2026-04-23 18:41 | -3.05682 | -42.83250 | 3126 ft | 162 kts | 327° |
| 2026-04-23 18:41 | -3.04734 | -42.83849 | 3119 ft | 160 kts | 327° |
| 2026-04-23 18:41 | -3.03806 | -42.84438 | 3121 ft | 160 kts | 327° |
| 2026-04-23 18:42 | -3.02861 | -42.85036 | 3121 ft | 160 kts | 327° |
| 2026-04-23 18:42 | -3.01914 | -42.85638 | 3123 ft | 162 kts | 327° |
| 2026-04-23 18:42 | -3.00962 | -42.86239 | 3120 ft | 161 kts | 327° |
| 2026-04-23 18:42 | -3.00020 | -42.86838 | 3126 ft | 161 kts | 327° |
| 2026-04-23 18:43 | -2.99071 | -42.87441 | 3122 ft | 162 kts | 327° |
| 2026-04-23 18:43 | -2.98124 | -42.88041 | 3119 ft | 160 kts | 327° |
| 2026-04-23 18:43 | -2.97185 | -42.88636 | 3124 ft | 160 kts | 327° |
| 2026-04-23 18:43 | -2.96245 | -42.89234 | 3121 ft | 160 kts | 327° |
| 2026-04-23 18:44 | -2.95305 | -42.89832 | 3121 ft | 160 kts | 327° |
| 2026-04-23 18:44 | -2.94365 | -42.90430 | 3122 ft | 160 kts | 327° |
| 2026-04-23 18:44 | -2.93423 | -42.91030 | 3124 ft | 161 kts | 327° |
| 2026-04-23 18:44 | -2.92490 | -42.91624 | 3123 ft | 161 kts | 327° |
| 2026-04-23 18:45 | -2.91548 | -42.92224 | 3120 ft | 160 kts | 327° |
| 2026-04-23 18:45 | -2.90611 | -42.92821 | 3126 ft | 160 kts | 327° |
| 2026-04-23 18:45 | -2.89664 | -42.93424 | 3123 ft | 162 kts | 327° |
| 2026-04-23 18:45 | -2.88716 | -42.94029 | 3124 ft | 161 kts | 327° |
| 2026-04-23 18:46 | -2.87767 | -42.94636 | 3127 ft | 162 kts | 327° |
| 2026-04-23 18:46 | -2.86814 | -42.95243 | 3122 ft | 161 kts | 327° |
| 2026-04-23 18:46 | -2.85870 | -42.95845 | 3121 ft | 160 kts | 327° |
| 2026-04-23 18:46 | -2.84943 | -42.96435 | 3130 ft | 160 kts | 327° |
| 2026-04-23 18:47 | -2.84002 | -42.97038 | 3132 ft | 161 kts | 327° |
| 2026-04-23 18:47 | -2.83041 | -42.97651 | 3121 ft | 162 kts | 327° |
| 2026-04-23 18:47 | -2.82109 | -42.98249 | 3123 ft | 161 kts | 327° |
| 2026-04-23 18:47 | -2.81165 | -42.98853 | 3126 ft | 160 kts | 326° |
| 2026-04-23 18:48 | -2.80222 | -42.99456 | 3121 ft | 161 kts | 327° |
| 2026-04-23 18:48 | -2.79278 | -43.00058 | 3130 ft | 161 kts | 326° |
| 2026-04-23 18:48 | -2.78328 | -43.00665 | 3120 ft | 162 kts | 327° |
| 2026-04-23 18:48 | -2.77384 | -43.01269 | 3120 ft | 160 kts | 327° |
| 2026-04-23 18:49 | -2.76446 | -43.01869 | 3120 ft | 161 kts | 327° |
| 2026-04-23 18:49 | -2.75501 | -43.02474 | 3122 ft | 160 kts | 327° |
| 2026-04-23 18:49 | -2.74561 | -43.03075 | 3120 ft | 160 kts | 327° |
| 2026-04-23 18:49 | -2.73624 | -43.03674 | 3120 ft | 159 kts | 327° |
| 2026-04-23 18:50 | -2.73008 | -43.04068 | 3121 ft | 159 kts | 327° |
| 2026-04-23 18:50 | -2.71757 | -43.04872 | 3120 ft | 159 kts | 327° |
| 2026-04-23 18:50 | -2.70822 | -43.05471 | 3119 ft | 160 kts | 327° |
| 2026-04-23 18:50 | -2.69888 | -43.06069 | 3123 ft | 159 kts | 327° |
| 2026-04-23 18:51 | -2.68965 | -43.06660 | 3119 ft | 160 kts | 326° |
| 2026-04-23 18:51 | -2.68021 | -43.07265 | 3119 ft | 160 kts | 327° |
| 2026-04-23 18:51 | -2.67082 | -43.07868 | 3122 ft | 160 kts | 327° |
| 2026-04-23 18:51 | -2.66157 | -43.08462 | 3121 ft | 161 kts | 326° |
| 2026-04-23 18:52 | -2.65219 | -43.09067 | 3120 ft | 160 kts | 327° |
| 2026-04-23 18:52 | -2.64287 | -43.09665 | 3120 ft | 159 kts | 327° |
| 2026-04-23 18:52 | -2.63354 | -43.10265 | 3120 ft | 159 kts | 326° |
| 2026-04-23 18:52 | -2.62422 | -43.10866 | 3119 ft | 159 kts | 326° |
| 2026-04-23 18:53 | -2.61487 | -43.11468 | 3122 ft | 160 kts | 326° |
| 2026-04-23 18:53 | -2.60548 | -43.12073 | 3122 ft | 161 kts | 326° |
| 2026-04-23 18:53 | -2.59608 | -43.12680 | 3124 ft | 161 kts | 326° |
| 2026-04-23 18:53 | -2.58667 | -43.13286 | 3128 ft | 160 kts | 327° |
| 2026-04-23 18:54 | -2.57730 | -43.13889 | 3122 ft | 161 kts | 326° |
| 2026-04-23 18:54 | -2.56792 | -43.14496 | 3124 ft | 160 kts | 326° |
| 2026-04-23 18:54 | -2.55851 | -43.15102 | 3122 ft | 161 kts | 326° |
| 2026-04-23 18:54 | -2.54909 | -43.15710 | 3121 ft | 159 kts | 327° |
| 2026-04-23 18:55 | -2.53839 | -43.15897 | 3062 ft | 163 kts | 13° |
| 2026-04-23 18:55 | -2.52976 | -43.15196 | 3019 ft | 164 kts | 55° |
| 2026-04-23 18:55 | -2.52378 | -43.14230 | 3022 ft | 163 kts | 57° |
| 2026-04-23 18:55 | -2.51775 | -43.13272 | 3025 ft | 163 kts | 57° |
| 2026-04-23 18:56 | -2.51377 | -43.12640 | 3026 ft | 162 kts | 57° |
| 2026-04-23 18:56 | -2.50582 | -43.11374 | 3029 ft | 162 kts | 57° |
| 2026-04-23 18:56 | -2.49973 | -43.10406 | 3027 ft | 162 kts | 57° |
| 2026-04-23 18:56 | -2.49380 | -43.09463 | 3030 ft | 162 kts | 57° |
| 2026-04-23 18:57 | -2.48975 | -43.08818 | 3027 ft | 162 kts | 57° |
| 2026-04-23 18:57 | -2.48176 | -43.07549 | 3028 ft | 163 kts | 57° |
| 2026-04-23 18:57 | -2.47572 | -43.06590 | 3030 ft | 163 kts | 57° |
| 2026-04-23 18:57 | -2.46968 | -43.05632 | 3029 ft | 163 kts | 57° |
| 2026-04-23 18:58 | -2.46365 | -43.04674 | 3029 ft | 162 kts | 57° |
| 2026-04-23 18:58 | -2.45966 | -43.04041 | 3030 ft | 162 kts | 57° |
| 2026-04-23 18:58 | -2.45364 | -43.03086 | 3030 ft | 162 kts | 57° |
| 2026-04-23 18:58 | -2.44762 | -43.02131 | 3028 ft | 162 kts | 57° |
| 2026-04-23 18:59 | -2.44161 | -43.01178 | 3028 ft | 162 kts | 57° |
| 2026-04-23 18:59 | -2.43558 | -43.00223 | 3031 ft | 162 kts | 57° |
| 2026-04-23 18:59 | -2.42956 | -42.99268 | 3029 ft | 162 kts | 57° |
| 2026-04-23 18:59 | -2.42157 | -42.98003 | 3028 ft | 162 kts | 57° |
| 2026-04-23 19:00 | -2.41750 | -42.97360 | 3028 ft | 162 kts | 57° |
| 2026-04-23 19:00 | -2.41154 | -42.96417 | 3029 ft | 162 kts | 57° |
| 2026-04-23 19:00 | -2.40551 | -42.95464 | 3029 ft | 162 kts | 57° |
| 2026-04-23 19:00 | -2.39947 | -42.94508 | 3028 ft | 162 kts | 57° |
| 2026-04-23 19:01 | -2.39342 | -42.93554 | 3028 ft | 162 kts | 57° |
| 2026-04-23 19:01 | -2.38738 | -42.92600 | 3029 ft | 162 kts | 57° |
| 2026-04-23 19:01 | -2.38132 | -42.91644 | 3028 ft | 162 kts | 57° |
| 2026-04-23 19:01 | -2.37522 | -42.90696 | 3024 ft | 162 kts | 53° |
| 2026-04-23 19:02 | -2.37010 | -42.89719 | 2982 ft | 163 kts | 82° |
| 2026-04-23 19:02 | -2.37381 | -42.88681 | 2925 ft | 164 kts | 134° |
| 2026-04-23 19:02 | -2.38406 | -42.88282 | 2880 ft | 163 kts | 177° |
| 2026-04-23 19:02 | -2.39533 | -42.88279 | 2885 ft | 161 kts | 180° |
| 2026-04-23 19:03 | -2.40653 | -42.88268 | 2888 ft | 161 kts | 180° |
| 2026-04-23 19:03 | -2.41773 | -42.88259 | 2890 ft | 161 kts | 180° |
| 2026-04-23 19:03 | -2.42891 | -42.88249 | 2891 ft | 161 kts | 180° |
| 2026-04-23 19:03 | -2.44008 | -42.88240 | 2891 ft | 161 kts | 180° |
| 2026-04-23 19:04 | -2.45126 | -42.88230 | 2891 ft | 161 kts | 180° |
| 2026-04-23 19:04 | -2.46244 | -42.88219 | 2891 ft | 161 kts | 180° |
| 2026-04-23 19:04 | -2.47363 | -42.88209 | 2891 ft | 161 kts | 180° |
| 2026-04-23 19:04 | -2.48480 | -42.88198 | 2892 ft | 161 kts | 180° |
| 2026-04-23 19:05 | -2.49600 | -42.88187 | 2891 ft | 161 kts | 180° |
| 2026-04-23 19:05 | -2.50718 | -42.88176 | 2891 ft | 161 kts | 180° |
| 2026-04-23 19:05 | -2.51837 | -42.88165 | 2891 ft | 161 kts | 180° |
| 2026-04-23 19:05 | -2.52939 | -42.88154 | 2892 ft | 161 kts | 180° |
| 2026-04-23 19:06 | -2.54057 | -42.88143 | 2891 ft | 161 kts | 180° |
| 2026-04-23 19:06 | -2.55175 | -42.88131 | 2891 ft | 161 kts | 180° |
| 2026-04-23 19:06 | -2.56294 | -42.88119 | 2892 ft | 161 kts | 180° |
| 2026-04-23 19:06 | -2.57414 | -42.88107 | 2892 ft | 161 kts | 180° |
| 2026-04-23 19:07 | -2.58532 | -42.88094 | 2891 ft | 161 kts | 180° |
| 2026-04-23 19:07 | -2.59651 | -42.88081 | 2892 ft | 161 kts | 180° |
| 2026-04-23 19:07 | -2.60772 | -42.88069 | 2892 ft | 161 kts | 180° |
| 2026-04-23 19:07 | -2.61890 | -42.88056 | 2891 ft | 161 kts | 180° |
| 2026-04-23 19:08 | -2.63008 | -42.88043 | 2892 ft | 161 kts | 180° |
| 2026-04-23 19:08 | -2.64128 | -42.88029 | 2892 ft | 161 kts | 180° |
| 2026-04-23 19:08 | -2.65246 | -42.88016 | 2892 ft | 161 kts | 180° |
| 2026-04-23 19:08 | -2.66368 | -42.88002 | 2894 ft | 161 kts | 180° |
| 2026-04-23 19:09 | -2.67480 | -42.87988 | 2891 ft | 162 kts | 180° |
| 2026-04-23 19:09 | -2.68604 | -42.87974 | 2896 ft | 162 kts | 180° |
| 2026-04-23 19:09 | -2.69735 | -42.87958 | 2892 ft | 162 kts | 180° |
| 2026-04-23 19:09 | -2.70861 | -42.87945 | 2893 ft | 161 kts | 180° |
| 2026-04-23 19:10 | -2.71981 | -42.87930 | 2897 ft | 161 kts | 180° |
| 2026-04-23 19:10 | -2.73102 | -42.87915 | 2891 ft | 161 kts | 180° |
| 2026-04-23 19:10 | -2.74220 | -42.87901 | 2891 ft | 161 kts | 180° |
| 2026-04-23 19:10 | -2.75336 | -42.87888 | 2895 ft | 160 kts | 180° |
| 2026-04-23 19:11 | -2.76457 | -42.87873 | 2891 ft | 161 kts | 180° |
| 2026-04-23 19:11 | -2.77579 | -42.87857 | 2892 ft | 161 kts | 180° |
| 2026-04-23 19:11 | -2.78700 | -42.87841 | 2893 ft | 162 kts | 180° |
| 2026-04-23 19:11 | -2.79826 | -42.87827 | 2899 ft | 162 kts | 180° |
| 2026-04-23 19:12 | -2.80570 | -42.87816 | 2891 ft | 161 kts | 180° |
| 2026-04-23 19:12 | -2.82073 | -42.87793 | 2894 ft | 162 kts | 180° |
| 2026-04-23 19:12 | -2.83195 | -42.87731 | 2873 ft | 162 kts | 168° |
| 2026-04-23 19:12 | -2.84049 | -42.87030 | 2800 ft | 166 kts | 121° |
| 2026-04-23 19:13 | -2.84498 | -42.85954 | 2676 ft | 170 kts | 106° |
| 2026-04-23 19:13 | -2.84453 | -42.84779 | 2509 ft | 173 kts | 71° |
| 2026-04-23 19:13 | -2.83985 | -42.83722 | 2390 ft | 165 kts | 65° |
| 2026-04-23 19:13 | -2.83506 | -42.82683 | 2260 ft | 164 kts | 61° |
| 2026-04-23 19:14 | -2.82839 | -42.81769 | 2126 ft | 163 kts | 51° |
| 2026-04-23 19:14 | -2.82108 | -42.80920 | 1972 ft | 162 kts | 43° |
| 2026-04-23 19:14 | -2.81252 | -42.80166 | 1708 ft | 166 kts | 40° |
| 2026-04-23 19:14 | -2.80378 | -42.79399 | 1515 ft | 164 kts | 40° |
| 2026-04-23 19:15 | -2.79547 | -42.78669 | 1516 ft | 156 kts | 40° |
| 2026-04-23 19:15 | -2.78738 | -42.77958 | 1510 ft | 153 kts | 41° |
| 2026-04-23 19:15 | -2.77944 | -42.77258 | 1508 ft | 151 kts | 41° |
| 2026-04-23 19:15 | -2.77070 | -42.76701 | 1470 ft | 152 kts | 12° |
| 2026-04-23 19:16 | -2.76091 | -42.76973 | 1413 ft | 150 kts | 321° |
| 2026-04-23 19:16 | -2.75475 | -42.77730 | 1058 ft | 134 kts | 287° |
| 2026-04-23 19:16 | -2.75591 | -42.78481 | 659 ft | 79 kts | 260° |
| 2026-04-23 19:17 | -2.75661 | -42.79378 | 217 ft | 63 kts | 265° |
| 2026-04-23 19:17 | -2.75673 | -42.79814 | 24 ft | 54 kts | 279° |
| 2026-04-23 19:17 | -2.75680 | -42.80103 | 29 ft | 37 kts | 271° |
| 2026-04-23 19:17 | -2.75671 | -42.80406 | 36 ft | 49 kts | 272° |
| 2026-04-23 19:18 | -2.75714 | -42.80660 | 37 ft | 21 kts | 160° |
| 2026-04-23 19:18 | -2.75821 | -42.80575 | 37 ft | 17 kts | 186° |
| 2026-04-23 19:18 | -2.75928 | -42.80574 | 37 ft | 5 kts | 1° |
| 2026-04-23 19:18 | -2.75927 | -42.80574 | 37 ft | 0 kts | 330° |